Time;durP1;ratioP1;P1;durP2;ratioP2;P2;SDS_P1;SDS_P2;PMS_P1;PMS_P2;Temp;Humidity;BMP_temperature;BMP_pressure;BME280_temperature;BME280_humidity;BME280_pressure;Samples;Min_cycle;Max_cycle;Signal;HPM_P1;HPM_P2
2022/03/14 00:02:02;;;;;;;;;;;;;;;2.37;39.90;101827.20;1777862;79;27478;-68
2022/03/14 00:04:29;;;;;;;;;;;;;;;2.34;39.93;101821.88;1726006;82;84563;-68
2022/03/14 00:06:55;;;;;;;;;;;;;;;2.29;40.15;101824.48;1728325;80;26345;-68
2022/03/14 00:09:21;;;;;;;;;;;;;;;2.27;40.14;101828.44;1727535;81;26329;-68
2022/03/14 00:11:47;;;;;;;;;;;;;;;2.23;40.20;101821.34;1774699;78;84289;-69
2022/03/14 00:14:13;;;;;;;;;;;;;;;2.21;40.23;101824.41;1775834;79;27563;-69
2022/03/14 00:16:41;;;;;;;;;;;;;;;2.20;40.45;101827.03;1776804;79;83836;-68
2022/03/14 00:19:07;;;;;;;;;;;;;;;2.17;40.46;101824.36;1778387;79;25750;-68
2022/03/14 00:21:38;;;;;;;;;;;;;;;2.13;40.59;101829.17;1776215;79;26613;-68
2022/03/14 00:24:02;;;;;;;;;;;;;;;2.11;40.63;101830.91;1773798;78;84504;-68
2022/03/14 00:26:28;;;;;;;;;;;;;;;2.07;40.71;101833.96;1774884;79;27324;-68
2022/03/14 00:28:54;;;;;;;;;;;;;;;2.04;40.73;101834.36;1773853;79;83809;-68
2022/03/14 00:31:21;;;;;;;;;;;;;;;2.02;40.82;101832.14;1776561;79;25762;-69
2022/03/14 00:33:48;;;;;;;;;;;;;;;2.00;40.87;101834.77;1774388;80;84643;-68
2022/03/14 00:36:13;;;;;;;;;;;;;;;1.98;40.89;101835.19;1774480;79;25705;-68
2022/03/14 00:38:39;;;;;;;;;;;;;;;1.95;41.03;101839.12;1775379;79;28015;-68
2022/03/14 00:41:07;;;;;;;;;;;;;;;1.91;41.02;101833.34;1751857;79;84524;-70
2022/03/14 00:43:33;;;;;;;;;;;;;;;1.91;41.13;101841.27;1738277;80;25509;-68
2022/03/14 00:45:59;;;;;;;;;;;;;;;1.89;41.25;101834.65;1745769;80;84857;-68
2022/03/14 00:48:25;;;;;;;;;;;;;;;1.87;41.20;101833.75;1741239;80;25772;-70
2022/03/14 00:50:51;;;;;;;;;;;;;;;1.86;41.41;101833.73;1740510;80;27448;-68
2022/03/14 00:53:17;;;;;;;;;;;;;;;1.83;41.44;101837.22;1740292;80;84155;-69
2022/03/14 00:55:43;;;;;;;;;;;;;;;1.81;41.43;101832.79;1739862;80;25755;-67
2022/03/14 00:58:09;;;;;;;;;;;;;;;1.78;41.59;101831.44;1738208;80;84221;-67
2022/03/14 01:00:35;;;;;;;;;;;;;;;1.75;41.73;101832.28;1741252;80;25915;-67
2022/03/14 01:03:00;;;;;;;;;;;;;;;1.74;41.81;101842.84;1742470;80;27491;-69
2022/03/14 01:05:27;;;;;;;;;;;;;;;1.71;41.64;101833.55;1739862;80;84772;-69
2022/03/14 01:07:53;;;;;;;;;;;;;;;1.66;41.96;101829.53;1741108;79;26533;-68
2022/03/14 01:10:20;;;;;;;;;;;;;;;1.64;42.04;101828.62;1740171;80;84098;-68
2022/03/14 01:12:46;;;;;;;;;;;;;;;1.60;42.04;101826.37;1743583;80;26510;-68
2022/03/14 01:15:12;;;;;;;;;;;;;;;1.55;42.24;101830.72;1742027;80;27433;-70
2022/03/14 01:17:40;;;;;;;;;;;;;;;1.53;42.38;101826.29;1741637;80;83879;-68
2022/03/14 01:20:08;;;;;;;;;;;;;;;1.48;42.40;101824.91;1742415;80;26600;-69
2022/03/14 01:22:34;;;;;;;;;;;;;;;1.46;42.42;101827.97;1741234;80;84591;-68
2022/03/14 01:25:01;;;;;;;;;;;;;;;1.42;42.61;101826.59;1741960;80;25871;-68
2022/03/14 01:27:27;;;;;;;;;;;;;;;1.39;42.75;101828.75;1743384;80;28149;-68
2022/03/14 01:29:53;;;;;;;;;;;;;;;1.37;42.78;101834.88;1739642;80;83761;-69
2022/03/14 01:32:18;;;;;;;;;;;;;;;1.33;42.85;101832.63;1741548;80;25847;-69
2022/03/14 01:34:44;;;;;;;;;;;;;;;1.31;42.97;101834.37;1736679;80;84526;-68
2022/03/14 01:37:10;;;;;;;;;;;;;;;1.28;42.99;101832.58;1741513;79;25714;-69
2022/03/14 01:39:36;;;;;;;;;;;;;;;1.27;43.06;101839.16;1739320;80;27411;-69
2022/03/14 01:42:03;;;;;;;;;;;;;;;1.25;43.19;101840.89;1778980;78;83659;-69
2022/03/14 01:44:30;;;;;;;;;;;;;;;1.21;43.32;101839.95;1783602;79;25982;-68
2022/03/14 01:46:57;;;;;;;;;;;;;;;1.19;43.37;101844.77;1786740;78;83587;-69
2022/03/14 01:49:23;;;;;;;;;;;;;;;1.18;43.37;101849.59;1780697;79;25665;-69
2022/03/14 01:51:52;;;;;;;;;;;;;;;1.15;43.20;101844.27;1780453;79;83989;-69
2022/03/14 01:54:17;;;;;;;;;;;;;;;1.15;43.60;101853.08;1780289;79;25742;-68
2022/03/14 01:56:44;;;;;;;;;;;;;;;1.14;43.72;101852.62;1785581;79;25914;-68
2022/03/14 01:59:10;;;;;;;;;;;;;;;1.14;43.79;101846.45;1782947;79;84565;-69
2022/03/14 02:01:35;;;;;;;;;;;;;;;1.11;43.74;101849.05;1784652;79;25772;-68
2022/03/14 02:04:08;;;;;;;;;;;;;;;1.08;43.97;101850.33;1777880;78;83913;-68
2022/03/14 02:06:37;;;;;;;;;;;;;;;1.07;44.02;101848.55;1787594;78;25777;-68
2022/03/14 02:09:06;;;;;;;;;;;;;;;1.04;44.04;101847.19;1782562;79;25862;-67
2022/03/14 02:11:52;;;;;;;;;;;;;;;1.02;44.07;101844.95;1783780;79;84431;-68
2022/03/14 02:14:23;;;;;;;;;;;;;;;1.00;44.37;101844.93;1756805;79;25713;-69
2022/03/14 02:16:54;;;;;;;;;;;;;;;0.98;44.44;101842.27;1777838;78;85236;-70
2022/03/14 02:19:23;;;;;;;;;;;;;;;0.96;44.54;101850.59;1787871;79;25745;-68
2022/03/14 02:21:49;;;;;;;;;;;;;;;0.95;44.51;101849.25;1783678;79;25733;-68
2022/03/14 02:24:15;;;;;;;;;;;;;;;0.95;44.58;101848.82;1730195;80;83891;-69
2022/03/14 02:26:42;;;;;;;;;;;;;;;0.95;44.98;101846.61;1724620;80;26011;-68
2022/03/14 02:29:08;;;;;;;;;;;;;;;0.94;44.90;101851.00;1729748;80;83746;-69
2022/03/14 02:31:38;;;;;;;;;;;;;;;0.92;44.75;101846.56;1728668;81;25715;-69
2022/03/14 02:34:05;;;;;;;;;;;;;;;0.91;45.12;101849.64;1730061;81;83890;-69
2022/03/14 02:36:31;;;;;;;;;;;;;;;0.89;45.08;101843.45;1728530;80;26517;-69
2022/03/14 02:38:57;;;;;;;;;;;;;;;0.90;45.08;101849.61;1720651;80;25799;-69
2022/03/14 02:41:24;;;;;;;;;;;;;;;0.89;45.23;101850.05;1730842;81;83924;-69
2022/03/14 02:43:50;;;;;;;;;;;;;;;0.87;45.33;101839.02;1721526;81;25881;-68
2022/03/14 02:46:16;;;;;;;;;;;;;;;0.88;45.34;101843.42;1770363;79;84694;-68
2022/03/14 02:48:42;;;;;;;;;;;;;;;0.88;45.66;101840.78;1764172;79;25822;-68
2022/03/14 02:51:07;;;;;;;;;;;;;;;0.88;45.53;101838.14;1764538;79;25742;-70
2022/03/14 02:53:33;;;;;;;;;;;;;;;0.87;45.76;101832.41;1763750;79;84711;-69
2022/03/14 02:55:59;;;;;;;;;;;;;;;0.85;45.94;101832.39;1765280;79;25933;-69
2022/03/14 02:58:32;;;;;;;;;;;;;;;0.85;45.87;101838.98;1764211;79;83860;-69
2022/03/14 03:00:57;;;;;;;;;;;;;;;0.83;46.09;101843.35;1765283;79;26522;-69
2022/03/14 03:03:23;;;;;;;;;;;;;;;0.82;46.47;101844.22;1763874;79;26332;-69
2022/03/14 03:05:48;;;;;;;;;;;;;;;0.80;46.45;101839.34;1770238;79;83720;-70
2022/03/14 03:08:14;;;;;;;;;;;;;;;0.73;46.54;101838.80;1770457;79;25880;-68
2022/03/14 03:10:42;;;;;;;;;;;;;;;0.77;46.61;101850.28;1771741;79;83745;-68
2022/03/14 03:13:12;;;;;;;;;;;;;;;0.75;46.48;101846.73;1770348;79;25812;-69
2022/03/14 03:15:38;;;;;;;;;;;;;;;0.73;46.66;101849.35;1772298;79;25805;-68
2022/03/14 03:18:05;;;;;;;;;;;;;;;0.74;46.71;101852.88;1770407;79;83851;-68
2022/03/14 03:20:31;;;;;;;;;;;;;;;0.72;47.09;101854.61;1771032;79;26227;-68
2022/03/14 03:22:56;;;;;;;;;;;;;;;0.69;47.05;101852.80;1770735;79;83727;-68
2022/03/14 03:25:22;;;;;;;;;;;;;;;0.67;47.02;101848.36;1772285;79;25813;-68
2022/03/14 03:27:48;;;;;;;;;;;;;;;0.64;47.45;101854.05;1770487;79;25738;-68
2022/03/14 03:30:15;;;;;;;;;;;;;;;0.63;47.57;101857.98;1769866;78;84751;-68
2022/03/14 03:32:41;;;;;;;;;;;;;;;0.61;47.82;101854.00;1771622;79;25828;-68
2022/03/14 03:35:08;;;;;;;;;;;;;;;0.59;47.70;101854.84;1770378;79;84688;-68
2022/03/14 03:37:34;;;;;;;;;;;;;;;0.57;47.81;101857.88;1769651;80;25927;-68
2022/03/14 03:40:00;;;;;;;;;;;;;;;0.54;48.16;101858.71;1771234;79;84100;-69
2022/03/14 03:42:25;;;;;;;;;;;;;;;0.51;47.99;101856.02;1780652;79;27437;-69
2022/03/14 03:44:52;;;;;;;;;;;;;;;0.49;48.06;101856.42;1775775;79;25817;-68
2022/03/14 03:47:17;;;;;;;;;;;;;;;0.47;48.21;101858.16;1782691;79;83698;-68
2022/03/14 03:49:43;;;;;;;;;;;;;;;0.46;48.41;101856.80;1782007;79;26396;-69
2022/03/14 03:52:09;;;;;;;;;;;;;;;0.43;48.31;101857.64;1758354;79;84070;-68
2022/03/14 03:54:35;;;;;;;;;;;;;;;0.42;48.67;101860.25;1756997;80;27555;-68
2022/03/14 03:57:01;;;;;;;;;;;;;;;0.39;48.84;101860.20;1756977;80;26693;-68
2022/03/14 03:59:27;;;;;;;;;;;;;;;0.37;48.83;101868.09;1732104;81;83772;-68
2022/03/14 04:01:52;;;;;;;;;;;;;;;0.37;49.15;101865.88;1733634;81;25788;-68
2022/03/14 04:04:18;;;;;;;;;;;;;;;0.35;49.05;101867.59;1776239;79;83976;-68
2022/03/14 04:06:44;;;;;;;;;;;;;;;0.33;49.07;101871.09;1778469;79;27451;-68
2022/03/14 04:09:10;;;;;;;;;;;;;;;0.32;49.33;101874.59;1777741;79;25816;-69
2022/03/14 04:11:37;;;;;;;;;;;;;;;0.31;49.28;101872.82;1777208;79;83787;-69
2022/03/14 04:14:03;;;;;;;;;;;;;;;0.32;49.33;101878.98;1773962;79;26401;-70
2022/03/14 04:16:29;;;;;;;;;;;;;;;0.30;49.65;101877.63;1776782;79;84179;-68
2022/03/14 04:18:56;;;;;;;;;;;;;;;0.29;49.79;101873.22;1777738;79;26768;-67
2022/03/14 04:21:23;;;;;;;;;;;;;;;0.27;49.76;101878.90;1779082;79;25678;-69
2022/03/14 04:23:48;;;;;;;;;;;;;;;0.25;49.68;101879.30;1760111;79;84020;-69
2022/03/14 04:26:14;;;;;;;;;;;;;;;0.24;49.96;101880.59;1770314;79;26219;-70
2022/03/14 04:28:41;;;;;;;;;;;;;;;0.22;50.19;101880.56;1775446;79;83979;-69
2022/03/14 04:31:08;;;;;;;;;;;;;;;0.21;50.02;101884.48;1778427;79;27374;-69
2022/03/14 04:33:34;;;;;;;;;;;;;;;0.21;50.13;101887.13;1778000;80;25866;-67
2022/03/14 04:36:00;;;;;;;;;;;;;;;0.20;50.15;101881.39;1776787;79;84268;-70
2022/03/14 04:38:27;;;;;;;;;;;;;;;0.20;50.44;101893.25;1778040;80;25714;-69
2022/03/14 04:40:54;;;;;;;;;;;;;;;0.16;50.63;101885.72;1774277;79;84374;-67
2022/03/14 04:43:24;;;;;;;;;;;;;;;0.15;50.65;101894.91;1775023;80;27328;-67
2022/03/14 04:45:50;;;;;;;;;;;;;;;0.12;50.76;101892.22;1777978;79;25792;-68
2022/03/14 04:48:16;;;;;;;;;;;;;;;0.11;50.46;101886.48;1773238;79;84216;-68
2022/03/14 04:50:42;;;;;;;;;;;;;;;0.12;50.92;101894.86;1769889;79;25702;-68
2022/03/14 04:53:09;;;;;;;;;;;;;;;0.10;50.96;101897.47;1773822;78;83789;-68
2022/03/14 04:55:36;;;;;;;;;;;;;;;0.09;50.77;101895.69;1783145;79;27420;-67
2022/03/14 04:58:04;;;;;;;;;;;;;;;0.08;50.99;101892.59;1775379;79;84570;-68
2022/03/14 05:00:31;;;;;;;;;;;;;;;0.07;50.96;101897.41;1778317;80;25807;-68
2022/03/14 05:03:02;;;;;;;;;;;;;;;0.04;51.17;101902.62;1776710;78;26462;-70
2022/03/14 05:05:29;;;;;;;;;;;;;;;0.03;51.43;101894.25;1775502;79;83804;-68
2022/03/14 05:07:55;;;;;;;;;;;;;;;0.03;51.51;101899.95;1777434;79;27386;-69
2022/03/14 05:10:21;;;;;;;;;;;;;;;0.02;51.35;101894.22;1777683;79;84113;-69
2022/03/14 05:12:46;;;;;;;;;;;;;;;0.00;51.54;101896.40;1777202;79;26341;-69
2022/03/14 05:15:18;;;;;;;;;;;;;;;0.00;51.62;101902.13;1776661;79;25937;-69
2022/03/14 05:17:42;;;;;;;;;;;;;;;-0.01;51.74;101904.31;1775237;79;83839;-68
2022/03/14 05:20:09;;;;;;;;;;;;;;;-0.04;51.56;101907.77;1775267;79;27451;-70
2022/03/14 05:22:43;;;;;;;;;;;;;;;-0.05;51.59;101909.95;1773930;79;84112;-68
2022/03/14 05:25:10;;;;;;;;;;;;;;;-0.05;51.90;101910.38;1771675;79;25378;-70
2022/03/14 05:27:37;;;;;;;;;;;;;;;-0.05;51.93;101912.58;1780053;78;26475;-68
2022/03/14 05:30:06;;;;;;;;;;;;;;;-0.06;51.79;101913.44;1777100;79;84231;-70
2022/03/14 05:32:32;;;;;;;;;;;;;;;-0.06;51.87;101918.71;1778530;79;28077;-70
2022/03/14 05:34:57;;;;;;;;;;;;;;;-0.04;52.06;101921.37;1775920;79;84007;-68
2022/03/14 05:37:23;;;;;;;;;;;;;;;-0.04;52.10;101920.06;1775381;79;25832;-68
2022/03/14 05:39:49;;;;;;;;;;;;;;;-0.05;52.03;101919.17;1779450;78;25837;-68
2022/03/14 05:42:15;;;;;;;;;;;;;;;-0.03;52.16;101921.84;1766779;79;83952;-69
2022/03/14 05:44:44;;;;;;;;;;;;;;;-0.03;51.89;101925.36;1751907;80;27491;-69
2022/03/14 05:47:09;;;;;;;;;;;;;;;-0.02;52.23;101930.20;1751959;80;85147;-69
2022/03/14 05:49:35;;;;;;;;;;;;;;;-0.02;52.29;101932.41;1717078;82;26023;-69
2022/03/14 05:52:01;;;;;;;;;;;;;;;-0.01;52.37;101930.66;1731281;81;84526;-68
2022/03/14 05:54:27;;;;;;;;;;;;;;;0.02;52.45;101925.84;1730813;81;26506;-70
2022/03/14 05:56:54;;;;;;;;;;;;;;;0.04;52.40;101928.09;1729739;81;28073;-70
2022/03/14 05:59:21;;;;;;;;;;;;;;;0.04;52.37;101922.39;1710926;81;83785;-69
2022/03/14 06:01:49;;;;;;;;;;;;;;;0.05;52.48;101921.95;1729793;81;26520;-69
2022/03/14 06:04:14;;;;;;;;;;;;;;;0.04;52.74;101921.06;1725344;81;84066;-69
2022/03/14 06:06:40;;;;;;;;;;;;;;;0.06;52.83;101924.63;1728850;81;25809;-71
2022/03/14 06:09:05;;;;;;;;;;;;;;;0.09;52.78;101923.80;1730708;81;26235;-70
2022/03/14 06:11:31;;;;;;;;;;;;;;;0.09;52.87;101916.78;1724902;81;83678;-70
2022/03/14 06:13:57;;;;;;;;;;;;;;;0.11;52.83;101922.97;1727291;81;26588;-70
2022/03/14 06:16:22;;;;;;;;;;;;;;;0.13;53.10;101917.30;1729363;81;84125;-70
2022/03/14 06:18:48;;;;;;;;;;;;;;;0.15;53.05;101927.44;1726910;82;26365;-69
2022/03/14 06:21:14;;;;;;;;;;;;;;;0.19;53.30;101925.33;1730055;81;26962;-69
2022/03/14 06:23:40;;;;;;;;;;;;;;;0.24;53.30;101929.37;1713824;81;84643;-70
2022/03/14 06:26:05;;;;;;;;;;;;;;;0.27;53.18;101926.79;1760917;80;26566;-70
2022/03/14 06:28:31;;;;;;;;;;;;;;;0.28;53.37;101926.82;1712919;82;83921;-71
2022/03/14 06:30:57;;;;;;;;;;;;;;;0.33;53.52;101926.91;1755998;80;26312;-69
2022/03/14 06:33:23;;;;;;;;;;;;;;;0.37;53.65;101923.47;1713185;82;27387;-69
2022/03/14 06:35:50;;;;;;;;;;;;;;;0.43;53.48;101922.69;1727523;80;83783;-68
2022/03/14 06:38:15;;;;;;;;;;;;;;;0.48;53.67;101920.59;1727226;81;26066;-68
2022/03/14 06:40:41;;;;;;;;;;;;;;;0.51;53.74;101926.36;1727886;81;83973;-69
2022/03/14 06:43:10;;;;;;;;;;;;;;;0.56;53.82;101930.86;1739040;81;26222;-69
2022/03/14 06:45:38;;;;;;;;;;;;;;;0.62;53.90;101932.72;1785134;79;28395;-69
2022/03/14 06:48:06;;;;;;;;;;;;;;;0.68;53.83;101934.14;1782367;79;84611;-69
2022/03/14 06:50:36;;;;;;;;;;;;;;;0.75;53.94;101936.46;1729651;81;25796;-69
2022/03/14 06:53:02;;;;;;;;;;;;;;;0.80;53.88;101927.76;1730753;80;83680;-68
2022/03/14 06:55:28;;;;;;;;;;;;;;;0.86;54.02;101935.78;1731980;80;25822;-69
2022/03/14 06:57:56;;;;;;;;;;;;;;;0.91;54.02;101932.78;1734498;81;27474;-69
2022/03/14 07:00:23;;;;;;;;;;;;;;;0.98;54.03;101940.38;1730762;81;83987;-67
2022/03/14 07:02:50;;;;;;;;;;;;;;;1.04;53.94;101938.27;1781782;79;25727;-70
2022/03/14 07:05:20;;;;;;;;;;;;;;;1.11;53.88;101944.99;1778634;79;84535;-72
2022/03/14 07:07:46;;;;;;;;;;;;;;;1.17;54.00;101945.09;1726441;80;26009;-70
2022/03/14 07:10:14;;;;;;;;;;;;;;;1.23;53.94;101946.94;1778103;79;84047;-70
2022/03/14 07:12:48;;;;;;;;;;;;;;;1.30;53.98;101948.37;1784173;79;26223;-68
2022/03/14 07:15:14;;;;;;;;;;;;;;;1.38;53.92;101951.56;1779413;79;25766;-68
2022/03/14 07:17:40;;;;;;;;;;;;;;;1.43;53.93;101940.20;1776897;79;83717;-68
2022/03/14 07:20:07;;;;;;;;;;;;;;;1.49;53.94;101945.58;1780544;79;25706;-69
2022/03/14 07:22:36;;;;;;;;;;;;;;;1.56;53.83;101942.59;1777648;79;85223;-69
2022/03/14 07:25:01;;;;;;;;;;;;;;;1.62;53.88;101937.39;1781800;79;25807;-70
2022/03/14 07:27:27;;;;;;;;;;;;;;;1.70;53.92;101942.78;1782752;79;25653;-69
2022/03/14 07:29:53;;;;;;;;;;;;;;;1.77;53.87;101935.39;1781044;79;84385;-69
2022/03/14 07:32:19;;;;;;;;;;;;;;;1.85;53.81;101937.70;1780762;78;25606;-69
2022/03/14 07:34:45;;;;;;;;;;;;;;;1.92;53.83;101943.52;1729628;80;84787;-67
2022/03/14 07:37:10;;;;;;;;;;;;;;;2.01;53.73;101940.98;1756198;80;25924;-70
2022/03/14 07:39:36;;;;;;;;;;;;;;;2.09;53.67;101936.68;1753755;79;25494;-70
2022/03/14 07:42:03;;;;;;;;;;;;;;;2.18;53.62;101946.05;1753997;80;85048;-71
2022/03/14 07:44:28;;;;;;;;;;;;;;;2.23;53.56;101943.02;1727825;81;25729;-72
2022/03/14 07:46:54;;;;;;;;;;;;;;;2.30;53.51;101941.77;1730284;81;84680;-71
2022/03/14 07:49:20;;;;;;;;;;;;;;;2.37;53.45;101940.97;1720745;81;25829;-71
2022/03/14 07:51:46;;;;;;;;;;;;;;;2.46;53.45;101953.86;1725667;81;25889;-73
2022/03/14 07:54:11;;;;;;;;;;;;;;;2.54;53.35;101952.61;1722576;81;84705;-74
2022/03/14 07:56:37;;;;;;;;;;;;;;;2.59;53.29;101949.14;1724777;81;25916;-73
2022/03/14 07:59:03;;;;;;;;;;;;;;;2.66;53.23;101947.84;1721914;81;83739;-75
2022/03/14 08:01:29;;;;;;;;;;;;;;;2.73;53.19;101946.59;1722882;81;26160;-73
2022/03/14 08:03:55;;;;;;;;;;;;;;;2.81;53.12;101940.94;1724271;80;25702;-71
2022/03/14 08:06:23;;;;;;;;;;;;;;;2.88;53.02;101936.14;1718724;81;84422;-74
2022/03/14 08:08:50;;;;;;;;;;;;;;;2.94;52.99;101933.55;1722555;80;26531;-69
2022/03/14 08:11:17;;;;;;;;;;;;;;;3.05;52.91;101941.59;1723504;80;84660;-71
2022/03/14 08:13:43;;;;;;;;;;;;;;;3.13;52.83;101940.33;1728359;80;26173;-74
2022/03/14 08:16:09;;;;;;;;;;;;;;;3.19;52.77;101945.23;1726476;81;83944;-73
2022/03/14 08:18:37;;;;;;;;;;;;;;;3.25;52.66;101943.95;1769707;79;25778;-73
2022/03/14 08:21:03;;;;;;;;;;;;;;;3.33;52.61;101943.13;1764712;79;25771;-73
2022/03/14 08:23:30;;;;;;;;;;;;;;;3.40;52.56;101935.66;1763930;79;85078;-73
2022/03/14 08:25:58;;;;;;;;;;;;;;;3.48;52.48;101932.63;1768587;79;25902;-72
2022/03/14 08:28:23;;;;;;;;;;;;;;;3.58;52.45;101936.66;1770475;80;83999;-72
2022/03/14 08:30:49;;;;;;;;;;;;;;;3.69;52.32;101931.42;1771975;79;25797;-72
2022/03/14 08:33:21;;;;;;;;;;;;;;;3.81;52.23;101931.92;1767184;80;25933;-71
2022/03/14 08:35:46;;;;;;;;;;;;;;;3.91;52.13;101940.38;1767457;79;84624;-71
2022/03/14 08:38:13;;;;;;;;;;;;;;;4.02;51.98;101939.09;1771787;80;26440;-72
2022/03/14 08:40:39;;;;;;;;;;;;;;;4.11;51.92;101937.36;1771037;79;84003;-72
2022/03/14 08:43:05;;;;;;;;;;;;;;;4.21;51.80;101937.84;1773013;79;25733;-73
2022/03/14 08:45:30;;;;;;;;;;;;;;;4.33;51.73;101939.65;1781427;79;26486;-72
2022/03/14 08:47:57;;;;;;;;;;;;;;;4.44;51.46;101935.70;1785612;79;83785;-72
2022/03/14 08:50:24;;;;;;;;;;;;;;;4.55;51.35;101931.30;1774516;79;25837;-72
2022/03/14 08:52:51;;;;;;;;;;;;;;;4.64;51.12;101922.45;1781036;78;85308;-72
2022/03/14 08:55:17;;;;;;;;;;;;;;;4.72;51.00;101927.34;1779370;79;25772;-73
2022/03/14 08:57:43;;;;;;;;;;;;;;;4.80;50.88;101926.91;1729148;81;25845;-73
2022/03/14 09:00:11;;;;;;;;;;;;;;;4.89;50.83;101925.14;1738074;81;83736;-69
2022/03/14 09:02:36;;;;;;;;;;;;;;;5.03;50.58;101928.23;1731190;80;25910;-69
2022/03/14 09:05:03;;;;;;;;;;;;;;;5.12;50.51;101919.82;1731489;80;84700;-68
2022/03/14 09:07:30;;;;;;;;;;;;;;;5.19;50.31;101916.27;1783083;79;26600;-70
2022/03/14 09:10:05;;;;;;;;;;;;;;;5.29;50.16;101914.90;1780008;79;25805;-71
2022/03/14 09:12:33;;;;;;;;;;;;;;;5.38;50.16;101909.56;1720243;81;84125;-72
2022/03/14 09:14:59;;;;;;;;;;;;;;;5.50;49.99;101902.45;1783982;78;25856;-72
2022/03/14 09:17:26;;;;;;;;;;;;;;;5.60;49.93;101903.31;1781597;79;84061;-73
2022/03/14 09:19:51;;;;;;;;;;;;;;;5.68;49.77;101905.95;1782166;79;25792;-71
2022/03/14 09:22:18;;;;;;;;;;;;;;;5.78;49.45;101898.37;1780061;79;83984;-70
2022/03/14 09:24:45;;;;;;;;;;;;;;;5.87;49.45;101901.00;1781292;79;27374;-73
2022/03/14 09:27:11;;;;;;;;;;;;;;;5.98;49.24;101899.22;1779182;79;25804;-71
2022/03/14 09:29:37;;;;;;;;;;;;;;;6.07;48.92;101903.17;1782036;79;83848;-70
2022/03/14 09:32:03;;;;;;;;;;;;;;;6.12;48.90;101892.05;1781433;79;26837;-71
2022/03/14 09:34:29;;;;;;;;;;;;;;;6.18;48.79;101893.34;1779292;79;83964;-69
2022/03/14 09:36:55;;;;;;;;;;;;;;;6.30;48.63;101891.52;1782087;79;28182;-72
2022/03/14 09:39:21;;;;;;;;;;;;;;;6.33;48.58;101885.72;1779341;79;26510;-69
2022/03/14 09:41:49;;;;;;;;;;;;;;;6.47;48.46;101894.51;1772739;79;83858;-69
2022/03/14 09:44:18;;;;;;;;;;;;;;;6.60;48.25;101900.64;1764060;79;26039;-70
2022/03/14 09:46:47;;;;;;;;;;;;;;;6.72;48.05;101893.00;1759252;79;84967;-69
2022/03/14 09:49:15;;;;;;;;;;;;;;;6.77;48.00;101877.87;1753471;80;28024;-69
2022/03/14 09:51:42;;;;;;;;;;;;;;;6.95;47.71;101884.37;1752750;80;27092;-69
2022/03/14 09:54:09;;;;;;;;;;;;;;;7.07;47.03;101882.05;1756154;80;84520;-69
2022/03/14 09:56:37;;;;;;;;;;;;;;;7.23;47.34;101884.13;1756846;80;26285;-69
2022/03/14 09:59:04;;;;;;;;;;;;;;;7.36;47.08;101880.44;1755820;80;83784;-69
2022/03/14 10:01:30;;;;;;;;;;;;;;;7.43;46.81;101877.69;1758683;80;27470;-69
2022/03/14 10:03:56;;;;;;;;;;;;;;;7.51;46.59;101879.39;1757868;80;25951;-69
2022/03/14 10:06:22;;;;;;;;;;;;;;;7.61;46.52;101878.38;1796119;78;83510;-69
2022/03/14 10:08:47;;;;;;;;;;;;;;;7.75;46.30;101876.44;1756682;80;26374;-69
2022/03/14 10:11:13;;;;;;;;;;;;;;;7.89;45.96;101882.91;1757549;80;83688;-69
2022/03/14 10:13:39;;;;;;;;;;;;;;;8.01;45.81;101880.08;1759282;80;27385;-69
2022/03/14 10:16:06;;;;;;;;;;;;;;;8.11;45.56;101879.05;1756208;80;25757;-69
2022/03/14 10:18:38;;;;;;;;;;;;;;;8.23;45.43;101876.67;1757274;80;83610;-69
2022/03/14 10:21:06;;;;;;;;;;;;;;;8.33;45.31;101880.55;1755237;78;26422;-69
2022/03/14 10:23:34;;;;;;;;;;;;;;;8.43;44.92;101878.18;1755976;80;83910;-69
2022/03/14 10:26:01;;;;;;;;;;;;;;;8.53;44.86;101868.69;1753510;80;27381;-68
2022/03/14 10:28:31;;;;;;;;;;;;;;;8.62;44.58;101876.11;1752327;79;83965;-71
2022/03/14 10:31:02;;;;;;;;;;;;;;;8.69;44.41;101865.75;1759930;80;25850;-69
2022/03/14 10:33:29;;;;;;;;;;;;;;;8.81;44.44;101854.43;1759124;80;26393;-68
2022/03/14 10:35:55;;;;;;;;;;;;;;;8.96;43.96;101858.18;1757733;79;83717;-68
2022/03/14 10:38:22;;;;;;;;;;;;;;;9.07;44.01;101857.09;1759856;80;27368;-68
2022/03/14 10:40:49;;;;;;;;;;;;;;;9.17;43.92;101858.26;1758829;80;84407;-68
2022/03/14 10:43:30;;;;;;;;;;;;;;;9.25;43.55;101852.31;1756438;81;25745;-68
2022/03/14 10:45:58;;;;;;;;;;;;;;;9.41;43.35;101853.78;1756670;80;26454;-69
2022/03/14 10:48:38;;;;;;;;;;;;;;;9.55;43.11;101850.38;1754545;80;84823;-70
2022/03/14 10:51:06;;;;;;;;;;;;;;;9.66;42.86;101850.17;1760815;80;27450;-71
2022/03/14 10:53:36;;;;;;;;;;;;;;;9.77;42.62;101844.14;1755395;80;84070;-69
2022/03/14 10:56:02;;;;;;;;;;;;;;;9.89;42.41;101845.22;1757976;80;25898;-69
2022/03/14 10:58:33;;;;;;;;;;;;;;;10.05;42.24;101852.47;1754348;80;83930;-68
2022/03/14 11:01:07;;;;;;;;;;;;;;;10.14;42.05;101842.00;1756660;81;25852;-69
2022/03/14 11:03:39;;;;;;;;;;;;;;;10.20;41.63;101848.59;1757339;80;28304;-70
2022/03/14 11:06:07;;;;;;;;;;;;;;;10.28;41.58;101847.97;1737942;80;84139;-72
2022/03/14 11:08:38;;;;;;;;;;;;;;;10.40;41.33;101845.00;1728388;81;25667;-72
2022/03/14 11:11:07;;;;;;;;;;;;;;;10.53;40.95;101841.08;1728252;82;84226;-73
2022/03/14 11:13:38;;;;;;;;;;;;;;;10.65;40.81;101839.44;1725683;81;25871;-73
2022/03/14 11:16:04;;;;;;;;;;;;;;;10.71;40.41;101823.20;1729038;81;27458;-72
2022/03/14 11:18:30;;;;;;;;;;;;;;;10.87;40.12;101826.37;1731345;81;84942;-72
2022/03/14 11:20:58;;;;;;;;;;;;;;;10.97;39.96;101831.04;1731568;81;25386;-72
2022/03/14 11:23:24;;;;;;;;;;;;;;;11.07;39.77;101817.80;1713505;82;83971;-70
2022/03/14 11:25:50;;;;;;;;;;;;;;;11.18;39.52;101821.08;1728009;81;26464;-70
2022/03/14 11:28:20;;;;;;;;;;;;;;;11.30;39.45;101822.55;1757591;80;84244;-69
2022/03/14 11:31:00;;;;;;;;;;;;;;;11.43;39.22;101817.26;1744644;80;25825;-70
2022/03/14 11:33:27;;;;;;;;;;;;;;;11.61;39.38;101813.16;1753214;80;26407;-72
2022/03/14 11:35:53;;;;;;;;;;;;;;;11.73;38.79;101811.92;1741329;80;84189;-69
2022/03/14 11:38:18;;;;;;;;;;;;;;;11.90;38.59;101805.16;1757147;80;26363;-70
2022/03/14 11:40:45;;;;;;;;;;;;;;;12.03;38.10;101809.23;1761659;79;84299;-70
2022/03/14 11:43:12;;;;;;;;;;;;;;;12.08;37.94;101810.44;1758867;80;26366;-71
2022/03/14 11:45:39;;;;;;;;;;;;;;;12.22;38.02;101812.23;1776789;79;25764;-71
2022/03/14 11:48:06;;;;;;;;;;;;;;;12.39;37.68;101809.00;1778912;79;84936;-69
2022/03/14 11:50:43;;;;;;;;;;;;;;;12.54;37.58;101808.50;1780490;79;25741;-71
2022/03/14 11:53:09;;;;;;;;;;;;;;;12.69;37.19;101804.42;1776958;79;84057;-71
2022/03/14 11:55:37;;;;;;;;;;;;;;;12.81;36.83;101808.52;1779352;79;25763;-70
2022/03/14 11:58:03;;;;;;;;;;;;;;;12.90;36.56;101801.47;1761408;79;26108;-70
2022/03/14 12:00:32;;;;;;;;;;;;;;;13.02;36.52;101796.97;1782367;79;84701;-70
2022/03/14 12:03:05;;;;;;;;;;;;;;;13.13;36.35;101800.16;1781647;79;25687;-70
2022/03/14 12:05:35;;;;;;;;;;;;;;;13.13;36.00;101792.09;1781647;79;84147;-70
2022/03/14 12:08:12;;;;;;;;;;;;;;;13.32;35.81;101801.30;1780090;79;25948;-69
2022/03/14 12:10:37;;;;;;;;;;;;;;;13.48;35.60;101798.05;1743761;79;85056;-67
2022/03/14 12:13:03;;;;;;;;;;;;;;;13.66;35.36;101794.66;1778770;79;26388;-69
2022/03/14 12:15:42;;;;;;;;;;;;;;;13.75;35.09;101801.52;1772445;79;25749;-69
2022/03/14 12:18:27;;;;;;;;;;;;;;;13.78;34.65;101798.70;1779766;79;84227;-68
2022/03/14 12:21:03;;;;;;;;;;;;;;;13.81;34.09;101800.81;1781174;79;25730;-67
2022/03/14 12:23:33;;;;;;;;;;;;;;;13.93;33.99;101800.34;1783254;79;84165;-67
2022/03/14 12:26:00;;;;;;;;;;;;;;;14.21;34.02;101801.95;1782014;78;25769;-67
2022/03/14 12:28:34;;;;;;;;;;;;;;;14.33;33.13;101803.28;1778617;79;84114;-68
2022/03/14 12:31:11;;;;;;;;;;;;;;;14.42;33.24;101805.16;1783351;79;27383;-68
2022/03/14 12:33:45;;;;;;;;;;;;;;;14.60;33.17;101801.70;1780012;79;26615;-67
2022/03/14 12:36:22;;;;;;;;;;;;;;;14.79;32.80;101799.11;1779235;79;84209;-67
2022/03/14 12:39:09;;;;;;;;;;;;;;;14.96;32.74;101794.81;1779378;79;25777;-67
2022/03/14 12:41:42;;;;;;;;;;;;;;;15.13;31.68;101788.20;1775787;79;84442;-68
2022/03/14 12:44:29;;;;;;;;;;;;;;;15.20;31.68;101795.09;1779802;79;27496;-68
2022/03/14 12:47:01;;;;;;;;;;;;;;;15.32;31.53;101804.48;1778395;79;84349;-67